Time;durP1;ratioP1;P1;durP2;ratioP2;P2;SDS_P1;SDS_P2;PMS_P1;PMS_P2;Temp;Humidity;BMP_temperature;BMP_pressure;BME280_temperature;BME280_humidity;BME280_pressure;Samples;Min_cycle;Max_cycle;Signal;HPM_P1;HPM_P2
2023/07/16 00:01:40;;;;;;;13.07;9.82;;;;;;;24.29;98.00;65553.44;5053012;28;20213;-53
2023/07/16 00:04:05;;;;;;;12.43;8.50;;;;;;;24.31;96.30;65555.66;5035981;28;20205;-53
2023/07/16 00:06:31;;;;;;;10.13;8.40;;;;;;;24.28;98.01;65556.94;5055349;28;20201;-54
2023/07/16 00:08:56;;;;;;;10.65;8.68;;;;;;;24.34;97.44;65558.97;5053374;28;20201;-52
2023/07/16 00:11:22;;;;;;;14.68;8.10;;;;;;;24.28;97.61;65552.31;5035377;28;20217;-53
2023/07/16 00:13:48;;;;;;;10.77;8.43;;;;;;;24.35;96.69;65562.69;5053329;28;20206;-52
2023/07/16 00:16:14;;;;;;;10.75;7.85;;;;;;;24.35;95.30;65562.69;5052782;28;20267;-54
2023/07/16 00:18:42;;;;;;;8.25;7.25;;;;;;;24.25;95.54;65553.59;5053343;28;20219;-53
2023/07/16 00:21:08;;;;;;;11.68;7.60;;;;;;;24.17;97.19;65540.13;5052599;28;20225;-55
2023/07/16 00:23:33;;;;;;;10.00;7.30;;;;;;;24.26;96.08;65549.56;5053190;28;20209;-51
2023/07/16 00:25:58;;;;;;;8.57;6.57;;;;;;;24.26;95.36;65549.56;5053379;28;20205;-52
2023/07/16 00:28:24;;;;;;;11.02;8.07;;;;;;;24.21;95.88;65547.16;5052489;28;20201;-52
2023/07/16 00:30:50;;;;;;;7.80;6.50;;;;;;;24.17;95.72;65540.13;5051314;28;20209;-51
2023/07/16 00:33:16;;;;;;;9.30;6.25;;;;;;;24.19;94.83;65542.34;5053513;28;20170;-53
2023/07/16 00:35:48;;;;;;;8.93;6.57;;;;;;;24.09;96.84;65536.97;5052491;28;20212;-53
2023/07/16 00:38:13;;;;;;;7.80;6.50;;;;;;;24.17;94.82;65537.56;5053878;28;20254;-53
2023/07/16 00:40:40;;;;;;;8.95;6.25;;;;;;;24.08;94.77;65532.72;5053403;28;20225;-50
2023/07/16 00:43:05;;;;;;;9.82;6.32;;;;;;;24.11;94.22;65536.06;5053410;28;20596;-51
2023/07/16 00:45:34;;;;;;;9.00;5.70;;;;;;;24.09;94.51;65531.84;5052847;28;20209;-50
2023/07/16 00:48:00;;;;;;;9.05;6.03;;;;;;;24.11;94.73;65533.50;5053628;28;20213;-51
2023/07/16 00:50:25;;;;;;;11.82;6.10;;;;;;;24.10;94.29;65532.94;5034534;28;20308;-51
2023/07/16 00:52:52;;;;;;;7.80;6.20;;;;;;;24.13;94.37;65535.72;5050982;28;20209;-50
2023/07/16 00:55:17;;;;;;;6.40;5.80;;;;;;;24.06;94.58;65527.94;5052587;28;20208;-55
2023/07/16 00:57:43;;;;;;;15.68;6.78;;;;;;;24.10;94.42;65532.38;5035518;28;20213;-51
2023/07/16 01:00:11;;;;;;;8.60;5.93;;;;;;;23.99;94.86;65520.72;5052320;28;20710;-50
2023/07/16 01:02:37;;;;;;;10.38;5.43;;;;;;;24.01;94.53;65524.97;5053312;28;20213;-52
2023/07/16 01:05:03;;;;;;;12.00;6.47;;;;;;;23.88;94.92;65511.09;5053346;28;20208;-50
2023/07/16 01:07:30;;;;;;;9.68;5.63;;;;;;;23.93;95.21;65516.66;5053793;28;20213;-55
2023/07/16 01:09:56;;;;;;;7.05;5.22;;;;;;;23.88;95.61;65510.53;5051796;28;20315;-52
2023/07/16 01:12:23;;;;;;;6.72;5.45;;;;;;;23.88;95.32;65510.53;5052502;28;20616;-54
2023/07/16 01:14:51;;;;;;;8.68;6.05;;;;;;;23.78;96.14;65497.44;5052428;28;20193;-51
2023/07/16 01:17:17;;;;;;;10.50;5.60;;;;;;;23.78;96.61;65499.44;5034188;28;20591;-54
2023/07/16 01:19:42;;;;;;;8.05;5.32;;;;;;;23.70;96.68;65493.16;5050957;28;20205;-53
2023/07/16 01:22:11;;;;;;;7.32;5.35;;;;;;;23.80;96.25;65499.66;5052863;28;20220;-53
2023/07/16 01:25:18;;;;;;;8.50;5.38;;;;;;;23.70;96.90;65491.16;5052129;28;20284;-51
2023/07/16 01:28:02;;;;;;;6.07;5.43;;;;;;;23.80;96.02;65502.22;4953255;28;20311;-55
2023/07/16 01:30:29;;;;;;;8.80;4.80;;;;;;;23.81;95.62;65503.34;5047257;28;20224;-54
2023/07/16 01:32:55;;;;;;;7.60;5.30;;;;;;;23.85;95.47;65504.66;5033946;28;20217;-50
2023/07/16 01:35:21;;;;;;;6.05;5.38;;;;;;;23.66;95.76;65484.13;5052080;28;20346;-51
2023/07/16 01:37:47;;;;;;;9.43;4.82;;;;;;;23.72;96.65;65490.22;5051698;28;20213;-51
2023/07/16 01:40:14;;;;;;;9.70;5.65;;;;;;;23.76;95.53;65494.66;5051711;28;20279;-50
2023/07/16 01:42:40;;;;;;;6.22;4.88;;;;;;;23.60;96.10;65479.50;5051299;28;20212;-51
2023/07/16 01:45:06;;;;;;;7.65;4.90;;;;;;;23.61;96.43;65478.03;5051221;28;20201;-53
2023/07/16 01:47:44;;;;;;;7.20;5.38;;;;;;;23.53;98.11;65469.75;5052212;28;20202;-53
2023/07/16 01:50:17;;;;;;;6.07;4.65;;;;;;;23.57;98.41;65476.19;5052008;28;20596;-56
2023/07/16 01:52:42;;;;;;;6.63;4.90;;;;;;;23.63;97.56;65482.84;5052061;28;20551;-52
2023/07/16 01:55:08;;;;;;;5.70;5.15;;;;;;;23.62;97.86;65479.16;5051746;28;20284;-52
2023/07/16 01:57:33;;;;;;;6.78;5.07;;;;;;;23.49;98.88;65467.31;5051608;28;20216;-53
2023/07/16 01:59:59;;;;;;;8.82;5.40;;;;;;;23.65;98.47;65488.19;5051670;28;20239;-53
2023/07/16 02:02:24;;;;;;;6.82;5.35;;;;;;;23.60;98.15;65476.94;5051270;28;20197;-51
2023/07/16 02:04:50;;;;;;;9.98;5.32;;;;;;;23.51;98.83;65470.09;5051955;28;20194;-50
2023/07/16 02:07:15;;;;;;;6.68;4.70;;;;;;;23.53;100.00;65469.75;5051717;28;20213;-52
2023/07/16 02:09:42;;;;;;;5.78;4.65;;;;;;;23.37;99.94;65454.03;5051221;28;20259;-55
2023/07/16 02:12:07;;;;;;;9.00;5.68;;;;;;;23.52;98.91;65468.06;5051698;28;20570;-51
2023/07/16 02:14:32;;;;;;;8.30;5.28;;;;;;;23.55;99.65;65473.97;5051627;28;20173;-51
2023/07/16 02:16:58;;;;;;;5.93;5.07;;;;;;;23.52;99.39;65468.63;5052617;28;20221;-50
2023/07/16 02:19:25;;;;;;;6.25;4.97;;;;;;;23.66;98.58;65486.72;5051686;28;20197;-54
2023/07/16 02:21:51;;;;;;;7.45;4.95;;;;;;;23.39;99.81;65458.81;5051395;28;20232;-52
2023/07/16 02:24:16;;;;;;;8.10;5.05;;;;;;;23.33;100.00;65448.13;5051607;28;20526;-50
2023/07/16 02:26:42;;;;;;;6.45;5.72;;;;;;;23.57;98.99;65474.16;5051034;28;20768;-51
2023/07/16 02:29:08;;;;;;;9.23;4.65;;;;;;;23.52;97.73;65468.63;5051013;28;20196;-53
2023/07/16 02:31:34;;;;;;;5.78;4.25;;;;;;;23.24;99.70;65440.16;5050545;28;20248;-51
2023/07/16 02:34:00;;;;;;;6.30;5.00;;;;;;;23.24;100.00;65440.72;5050970;28;20186;-52
2023/07/16 02:36:26;;;;;;;9.00;5.10;;;;;;;23.28;99.29;65444.59;5050585;28;20209;-53
2023/07/16 02:38:51;;;;;;;8.88;4.78;;;;;;;23.35;99.33;65450.34;5050809;28;20198;-52
2023/07/16 02:41:16;;;;;;;8.57;4.90;;;;;;;23.16;99.91;65431.28;5050497;28;20282;-50
2023/07/16 02:43:42;;;;;;;6.20;4.70;;;;;;;23.17;100.00;65432.38;5051943;28;20736;-50
2023/07/16 02:46:08;;;;;;;6.72;5.07;;;;;;;23.21;99.66;65437.38;5051472;28;20240;-55
2023/07/16 02:48:33;;;;;;;8.77;5.25;;;;;;;23.26;100.00;65439.78;5050438;28;20186;-55
2023/07/16 02:50:58;;;;;;;9.65;5.22;;;;;;;23.17;99.38;65429.81;5032777;28;20210;-51
2023/07/16 02:53:24;;;;;;;8.43;4.95;;;;;;;23.17;99.34;65430.38;5032665;28;20640;-53
2023/07/16 02:55:50;;;;;;;7.82;4.78;;;;;;;23.05;100.00;65419.09;5054219;28;20708;-53
2023/07/16 02:58:15;;;;;;;7.75;4.70;;;;;;;23.01;100.00;65412.66;5054621;28;20193;-52
2023/07/16 03:00:41;;;;;;;6.07;4.57;;;;;;;22.98;100.00;65411.34;5055031;28;20297;-55
2023/07/16 03:03:06;;;;;;;5.97;5.38;;;;;;;22.88;100.00;65402.84;5036867;28;20286;-56
2023/07/16 03:05:32;;;;;;;11.45;5.22;;;;;;;22.87;100.00;65402.28;5054579;28;20308;-53
2023/07/16 03:07:57;;;;;;;7.88;4.68;;;;;;;22.88;100.00;65400.84;5053802;28;20258;-52
2023/07/16 03:10:26;;;;;;;6.15;4.78;;;;;;;22.74;100.00;65382.19;5036508;28;20209;-53
2023/07/16 03:12:52;;;;;;;7.47;4.47;;;;;;;22.86;100.00;65400.63;5054501;28;20373;-52
2023/07/16 03:15:18;;;;;;;7.78;4.80;;;;;;;22.81;100.00;65393.06;5054900;28;20709;-51
2023/07/16 03:17:43;;;;;;;6.65;4.32;;;;;;;22.92;99.82;65407.84;5054201;28;20337;-51
2023/07/16 03:20:09;;;;;;;6.18;4.32;;;;;;;22.85;100.00;65400.06;5053829;28;20205;-54
2023/07/16 03:22:35;;;;;;;7.97;4.93;;;;;;;22.94;99.74;65407.47;5053415;28;20213;-53
2023/07/16 03:25:02;;;;;;;7.30;4.22;;;;;;;23.06;100.00;65420.78;5053529;28;20198;-53
2023/07/16 03:27:27;;;;;;;5.68;4.60;;;;;;;23.08;98.74;65419.84;5053759;28;20220;-53
2023/07/16 03:29:52;;;;;;;5.35;4.25;;;;;;;23.16;98.84;65431.28;5035322;28;20586;-53
2023/07/16 03:32:18;;;;;;;10.48;4.43;;;;;;;23.20;97.98;65435.72;5053565;28;20284;-53
2023/07/16 03:34:43;;;;;;;5.53;4.43;;;;;;;23.22;98.63;65435.91;5035222;28;20201;-54
2023/07/16 03:37:09;;;;;;;6.65;4.40;;;;;;;23.31;96.11;65448.47;5051894;28;20267;-51
2023/07/16 03:39:34;;;;;;;9.57;4.53;;;;;;;23.22;97.16;65435.91;5053065;28;20190;-51
2023/07/16 03:42:00;;;;;;;8.70;4.55;;;;;;;23.31;96.31;65445.91;5052711;28;20225;-50
2023/07/16 03:44:25;;;;;;;4.40;3.97;;;;;;;23.35;96.31;65452.91;5052731;28;20733;-50
2023/07/16 03:46:51;;;;;;;6.97;4.55;;;;;;;23.49;96.03;65467.31;5053149;28;20209;-50
2023/07/16 03:49:16;;;;;;;5.40;4.07;;;;;;;23.40;96.40;65460.47;5052856;28;20193;-50
2023/07/16 03:51:42;;;;;;;6.13;4.22;;;;;;;23.55;94.27;65473.97;5053238;28;20217;-53
2023/07/16 03:54:07;;;;;;;5.38;4.28;;;;;;;23.77;93.44;65498.91;5052547;28;20197;-52
2023/07/16 03:56:33;;;;;;;7.72;4.30;;;;;;;23.66;95.34;65486.16;5052461;28;20209;-53
2023/07/16 03:58:59;;;;;;;15.48;4.28;;;;;;;23.83;94.60;65502.44;5052716;28;20253;-55
2023/07/16 04:01:24;;;;;;;8.77;4.65;;;;;;;23.72;95.00;65490.22;5052363;28;20645;-53
2023/07/16 04:03:49;;;;;;;4.35;3.95;;;;;;;23.58;96.86;65477.84;5034840;28;20209;-54
2023/07/16 04:06:15;;;;;;;9.25;4.80;;;;;;;23.50;97.14;65468.97;5052295;28;20205;-55
2023/07/16 04:08:40;;;;;;;9.45;4.63;;;;;;;23.53;96.67;65471.75;5052742;28;20194;-53
2023/07/16 04:11:06;;;;;;;7.95;4.82;;;;;;;23.57;96.26;65476.19;5052908;28;20229;-53
2023/07/16 04:13:32;;;;;;;6.90;4.07;;;;;;;23.53;96.74;65471.75;5052589;28;20192;-54
2023/07/16 04:15:58;;;;;;;6.15;4.40;;;;;;;23.72;96.06;65493.34;5052635;28;20671;-52
2023/07/16 04:18:24;;;;;;;7.80;4.63;;;;;;;23.61;95.60;65480.63;5052602;28;20367;-54
2023/07/16 04:20:50;;;;;;;5.68;4.93;;;;;;;23.54;97.21;65473.41;5052643;28;20589;-51
2023/07/16 04:23:16;;;;;;;5.63;4.55;;;;;;;23.81;95.56;65502.78;5052389;28;20216;-51
2023/07/16 04:25:41;;;;;;;7.72;5.00;;;;;;;23.73;96.06;65493.91;5052004;28;20588;-52
2023/07/16 04:28:06;;;;;;;7.63;4.90;;;;;;;23.64;97.46;65484.50;5052331;28;20254;-51
2023/07/16 04:30:33;;;;;;;5.45;4.18;;;;;;;23.60;95.26;65477.50;5052131;28;20208;-52
2023/07/16 04:32:58;;;;;;;7.25;4.43;;;;;;;23.54;95.20;65470.84;5052352;28;20202;-57
2023/07/16 04:35:23;;;;;;;5.70;4.50;;;;;;;23.75;95.61;65493.56;5052218;28;20197;-53
2023/07/16 04:37:49;;;;;;;9.32;5.15;;;;;;;23.73;96.14;65494.47;5034380;28;20741;-53
2023/07/16 04:40:15;;;;;;;5.45;4.55;;;;;;;23.70;97.06;65490.59;5051797;28;20695;-53
2023/07/16 04:42:40;;;;;;;4.95;4.22;;;;;;;23.69;97.61;65486.91;5052031;28;20197;-53
2023/07/16 04:45:06;;;;;;;9.65;4.93;;;;;;;23.49;98.24;65464.75;5051825;28;20195;-53
2023/07/16 04:47:32;;;;;;;7.25;4.95;;;;;;;23.50;98.51;65468.41;5051806;28;20209;-53
2023/07/16 04:49:59;;;;;;;12.25;5.03;;;;;;;23.43;98.72;65456.09;5052331;28;20205;-54
2023/07/16 04:52:24;;;;;;;6.40;4.80;;;;;;;23.60;97.37;65482.63;5051937;28;20207;-53
2023/07/16 04:54:50;;;;;;;6.43;4.47;;;;;;;23.63;97.99;65480.25;5051820;28;20627;-53
2023/07/16 04:57:15;;;;;;;7.15;5.13;;;;;;;23.59;98.33;65478.41;5051877;28;20209;-52
2023/07/16 04:59:41;;;;;;;5.50;4.78;;;;;;;23.64;98.36;65481.91;5051843;28;20586;-53
2023/07/16 05:02:06;;;;;;;5.00;4.25;;;;;;;23.78;97.24;65496.88;5051660;28;20224;-52
2023/07/16 05:04:33;;;;;;;5.43;4.90;;;;;;;23.82;96.06;65504.44;5051852;28;20222;-57
2023/07/16 05:07:00;;;;;;;7.97;5.05;;;;;;;23.80;96.70;65501.66;5051833;28;20300;-53
2023/07/16 05:09:26;;;;;;;8.85;5.55;;;;;;;23.78;96.48;65496.88;5051909;28;20196;-52
2023/07/16 05:11:51;;;;;;;6.78;5.78;;;;;;;23.73;96.74;65493.91;5051438;28;20237;-53
2023/07/16 05:14:16;;;;;;;6.65;4.80;;;;;;;23.75;97.69;65496.69;5033632;28;20204;-52
2023/07/16 05:16:42;;;;;;;8.38;5.38;;;;;;;23.74;97.60;65495.03;5050276;28;20711;-51
2023/07/16 05:19:08;;;;;;;7.10;5.70;;;;;;;23.85;97.19;65504.66;5051594;28;20209;-51
2023/07/16 05:21:34;;;;;;;8.35;5.88;;;;;;;23.92;97.46;65517.53;5033642;28;20221;-51
2023/07/16 05:23:59;;;;;;;11.40;6.60;;;;;;;23.94;98.31;65515.16;5051629;28;20687;-51
2023/07/16 05:26:24;;;;;;;11.15;8.55;;;;;;;23.94;98.40;65517.19;5051418;28;20705;-51
2023/07/16 05:28:50;;;;;;;14.40;11.35;;;;;;;23.96;98.90;65519.41;5051487;28;20205;-52
2023/07/16 05:31:15;;;;;;;18.48;12.55;;;;;;;23.95;95.02;65516.28;5033162;28;20217;-52
2023/07/16 05:33:41;;;;;;;16.17;11.07;;;;;;;23.89;90.59;65511.66;5051371;28;20197;-52
2023/07/16 05:36:07;;;;;;;17.95;12.68;;;;;;;24.16;95.50;65542.16;5052219;28;20535;-53
2023/07/16 05:38:32;;;;;;;17.50;12.18;;;;;;;24.23;95.78;65546.78;5051379;28;20193;-50
2023/07/16 05:41:03;;;;;;;16.63;9.98;;;;;;;24.21;95.42;65541.44;5051191;28;20221;-51
2023/07/16 05:43:29;;;;;;;11.63;9.45;;;;;;;24.17;94.17;65542.72;5051397;28;20191;-53
2023/07/16 05:46:01;;;;;;;17.73;10.40;;;;;;;24.05;93.17;65526.84;5051220;28;20221;-52
2023/07/16 05:48:26;;;;;;;21.13;12.10;;;;;;;24.35;93.76;65562.69;5050845;28;20209;-51
2023/07/16 05:50:52;;;;;;;17.13;11.30;;;;;;;24.28;93.93;65552.31;5051170;28;20279;-50
2023/07/16 05:53:18;;;;;;;16.52;10.20;;;;;;;24.27;94.29;65551.22;5051300;28;20210;-53
2023/07/16 05:55:44;;;;;;;11.68;8.13;;;;;;;24.43;93.67;65565.84;5049643;28;20258;-51
2023/07/16 05:58:09;;;;;;;8.88;7.03;;;;;;;24.34;92.76;65558.97;5050861;28;20535;-52
2023/07/16 06:00:36;;;;;;;6.95;5.47;;;;;;;24.46;94.28;65571.75;5051329;28;20266;-53
2023/07/16 06:03:04;;;;;;;11.32;5.75;;;;;;;24.40;94.22;65565.63;5049573;28;20205;-53
2023/07/16 06:05:34;;;;;;;12.15;6.82;;;;;;;24.36;94.49;65563.78;5051104;28;20205;-53
2023/07/16 06:08:00;;;;;;;7.65;6.78;;;;;;;24.29;94.87;65556.03;5050096;28;20550;-50
2023/07/16 06:10:26;;;;;;;9.52;6.38;;;;;;;24.45;92.74;65576.34;5033003;28;20201;-53
2023/07/16 06:12:52;;;;;;;8.60;6.35;;;;;;;24.57;93.03;65583.94;5033100;28;20213;-51
2023/07/16 06:15:17;;;;;;;7.45;5.05;;;;;;;24.78;92.21;65607.81;5050811;28;20189;-52
2023/07/16 06:17:43;;;;;;;6.50;5.88;;;;;;;24.89;92.00;65619.47;5051717;28;20292;-53
2023/07/16 06:20:09;;;;;;;14.85;8.02;;;;;;;24.87;88.38;65617.22;5051186;28;20229;-51
2023/07/16 06:22:34;;;;;;;11.05;6.75;;;;;;;25.07;88.50;65638.88;5051815;28;20213;-51
2023/07/16 06:25:00;;;;;;;9.25;6.68;;;;;;;25.35;89.26;65672.53;5051474;28;20197;-53
2023/07/16 06:27:26;;;;;;;27.20;22.58;;;;;;;25.12;88.33;65644.44;5050435;28;20217;-54
2023/07/16 06:29:51;;;;;;;6.20;5.57;;;;;;;25.33;87.28;65665.16;5050430;28;20201;-53
2023/07/16 06:32:17;;;;;;;12.15;6.03;;;;;;;25.28;87.73;65662.75;5050434;28;20343;-53
2023/07/16 06:34:42;;;;;;;7.82;5.75;;;;;;;25.12;85.85;65644.97;5050567;28;20258;-52
2023/07/16 06:37:08;;;;;;;9.57;7.22;;;;;;;25.32;86.93;65666.63;5050225;28;20648;-51
2023/07/16 06:39:33;;;;;;;7.85;6.68;;;;;;;25.42;85.95;65677.75;5050215;28;20213;-51
2023/07/16 06:41:59;;;;;;;12.07;6.97;;;;;;;25.52;82.98;65688.84;5050180;28;20777;-53
2023/07/16 06:44:24;;;;;;;11.73;5.85;;;;;;;25.81;84.11;65721.03;5050375;28;20197;-53
2023/07/16 06:46:50;;;;;;;12.05;9.13;;;;;;;25.67;83.83;65705.50;5050502;28;20205;-54
2023/07/16 06:49:16;;;;;;;8.80;6.05;;;;;;;25.79;84.73;65719.38;5050562;28;20198;-54
2023/07/16 06:51:42;;;;;;;8.98;7.20;;;;;;;25.98;82.48;65737.31;5032532;28;20233;-53
2023/07/16 06:54:08;;;;;;;8.40;6.38;;;;;;;25.76;84.92;65715.47;5050580;28;20266;-50
2023/07/16 06:56:33;;;;;;;10.30;6.90;;;;;;;25.75;85.76;65714.94;5032254;28;20299;-51
2023/07/16 06:58:59;;;;;;;10.05;7.22;;;;;;;25.80;85.93;65719.94;5050323;28;20197;-57
2023/07/16 07:01:27;;;;;;;7.82;6.20;;;;;;;25.99;82.31;65741.03;5050242;28;20235;-52
2023/07/16 07:03:53;;;;;;;6.65;5.25;;;;;;;26.12;79.97;65754.94;5049991;28;20198;-52
2023/07/16 07:06:18;;;;;;;7.65;5.55;;;;;;;25.89;82.47;65729.94;5032527;28;20216;-66
2023/07/16 07:08:44;;;;;;;7.05;5.70;;;;;;;25.90;81.72;65731.03;5032174;28;20197;-54
2023/07/16 07:11:09;;;;;;;9.13;5.80;;;;;;;26.11;82.88;65753.81;5049825;28;20208;-54
2023/07/16 07:13:35;;;;;;;7.35;5.60;;;;;;;26.42;81.84;65790.84;5049891;28;20612;-54
2023/07/16 07:16:00;;;;;;;8.52;5.50;;;;;;;26.59;78.18;65804.56;5031932;28;20236;-57
2023/07/16 07:18:26;;;;;;;6.28;5.40;;;;;;;26.57;78.29;65805.47;5050161;28;20234;-53
2023/07/16 07:20:52;;;;;;;7.32;5.35;;;;;;;26.50;77.73;65797.16;5049881;28;20240;-52
2023/07/16 07:23:17;;;;;;;6.22;5.05;;;;;;;26.59;78.24;65807.13;5048706;28;20658;-53
2023/07/16 07:25:43;;;;;;;9.02;6.93;;;;;;;26.45;79.24;65789.00;5049825;28;20737;-54
2023/07/16 07:28:08;;;;;;;7.45;5.70;;;;;;;26.54;80.27;65802.13;5050152;28;20243;-52
2023/07/16 07:30:34;;;;;;;5.43;4.90;;;;;;;26.61;76.99;65809.91;5049669;28;20706;-51
2023/07/16 07:32:59;;;;;;;8.80;5.20;;;;;;;26.59;77.15;65807.69;5049686;28;20232;-50
2023/07/16 07:35:25;;;;;;;5.30;4.80;;;;;;;26.77;76.22;65826.59;5049909;28;20570;-51
2023/07/16 07:37:50;;;;;;;6.50;5.88;;;;;;;26.81;75.83;65831.03;5049595;28;20749;-53
2023/07/16 07:40:16;;;;;;;6.55;5.75;;;;;;;27.04;76.51;65856.63;5050546;28;20295;-53
2023/07/16 07:42:41;;;;;;;7.47;6.78;;;;;;;27.15;76.97;65866.28;5052873;28;20224;-53
2023/07/16 07:45:07;;;;;;;7.95;5.72;;;;;;;27.26;77.23;65881.06;5052897;28;20250;-54
2023/07/16 07:47:33;;;;;;;6.55;5.00;;;;;;;27.39;76.94;65895.56;5052896;28;20225;-54
2023/07/16 07:49:58;;;;;;;8.60;5.30;;;;;;;27.46;74.51;65903.34;5052934;28;20315;-53
2023/07/16 07:52:27;;;;;;;9.38;8.18;;;;;;;27.33;75.72;65888.88;5052843;28;20766;-53
2023/07/16 07:54:52;;;;;;;8.52;5.65;;;;;;;27.54;76.04;65911.66;5052756;28;20286;-52
2023/07/16 07:57:20;;;;;;;13.60;8.90;;;;;;;27.36;76.03;65892.22;5052717;28;20278;-52
2023/07/16 07:59:45;;;;;;;8.25;6.65;;;;;;;27.49;76.34;65903.53;5051548;28;20288;-53
2023/07/16 08:02:11;;;;;;;6.32;5.72;;;;;;;27.43;76.38;65900.00;5052602;28;20236;-52
2023/07/16 08:04:36;;;;;;;7.68;5.38;;;;;;;27.76;75.35;65930.94;5052399;28;20197;-53
2023/07/16 08:07:02;;;;;;;7.43;5.20;;;;;;;27.92;73.96;65956.53;5052316;28;20654;-53
2023/07/16 08:09:28;;;;;;;7.72;5.65;;;;;;;27.78;71.91;65938.91;5052370;28;20675;-53
2023/07/16 08:11:53;;;;;;;8.60;5.45;;;;;;;27.79;73.35;65937.44;5052121;28;20663;-52
2023/07/16 08:14:18;;;;;;;9.07;6.60;;;;;;;27.90;73.92;65954.84;5052326;28;20255;-54
2023/07/16 08:16:44;;;;;;;8.98;6.72;;;;;;;27.91;73.56;65955.97;5051972;28;20725;-52
2023/07/16 08:19:10;;;;;;;8.88;6.55;;;;;;;27.96;69.59;65958.41;5052803;28;20250;-52
2023/07/16 08:21:37;;;;;;;12.77;8.20;;;;;;;27.85;71.09;65943.56;5052345;28;20230;-53
2023/07/16 08:24:04;;;;;;;12.98;8.00;;;;;;;27.98;70.59;65958.59;5052449;28;20197;-52
2023/07/16 08:26:30;;;;;;;8.50;7.45;;;;;;;27.95;70.15;65955.25;5052664;28;20209;-52
2023/07/16 08:28:55;;;;;;;32.03;15.52;;;;;;;27.87;73.31;65948.38;5052338;28;20197;-52
2023/07/16 08:31:21;;;;;;;9.73;8.20;;;;;;;28.06;73.92;65967.50;5052127;28;20699;-52
2023/07/16 08:33:46;;;;;;;11.70;9.82;;;;;;;28.33;74.02;65999.56;5052536;28;20255;-54
2023/07/16 08:36:12;;;;;;;10.30;6.97;;;;;;;28.50;72.49;66017.94;5052625;28;20667;-51
2023/07/16 08:38:38;;;;;;;8.90;7.18;;;;;;;28.35;70.51;66001.78;5052073;28;20193;-51
2023/07/16 08:41:04;;;;;;;8.77;6.15;;;;;;;28.58;70.36;66026.88;5034168;28;20229;-53
2023/07/16 08:43:30;;;;;;;16.73;6.40;;;;;;;28.55;70.90;66021.47;5051984;28;20610;-54
2023/07/16 08:45:56;;;;;;;8.98;7.25;;;;;;;28.58;69.96;66024.84;5051838;28;20213;-57
2023/07/16 08:48:23;;;;;;;10.23;7.38;;;;;;;28.92;72.24;66064.72;5052172;28;20186;-51
2023/07/16 08:50:49;;;;;;;9.10;6.40;;;;;;;28.95;69.90;66066.00;5034122;28;20202;-52
2023/07/16 08:53:16;;;;;;;8.50;6.45;;;;;;;28.94;67.17;66064.34;5052129;28;20205;-50
2023/07/16 08:55:45;;;;;;;8.30;6.57;;;;;;;28.98;69.42;66066.19;5051945;28;20226;-51
2023/07/16 08:58:15;;;;;;;8.13;6.65;;;;;;;29.20;69.70;66092.75;5052045;28;20201;-51
2023/07/16 09:00:47;;;;;;;13.43;6.47;;;;;;;29.40;67.81;66118.19;5051730;28;20221;-51
2023/07/16 09:03:16;;;;;;;10.32;6.75;;;;;;;29.44;69.17;66119.47;5051547;28;20266;-51
2023/07/16 09:05:42;;;;;;;12.75;7.30;;;;;;;29.52;70.85;66128.38;5051924;28;20210;-52
2023/07/16 09:08:08;;;;;;;11.27;7.53;;;;;;;29.56;67.46;66133.41;5051827;28;20561;-56
2023/07/16 09:10:34;;;;;;;14.32;9.90;;;;;;;29.41;65.50;66119.28;5051642;28;20209;-57
2023/07/16 09:13:00;;;;;;;11.98;9.52;;;;;;;29.50;66.00;66128.75;5034148;28;20280;-54
2023/07/16 09:15:28;;;;;;;12.65;9.07;;;;;;;29.38;65.12;66113.34;5051651;28;20267;-55
2023/07/16 09:17:54;;;;;;;12.27;8.50;;;;;;;29.58;64.04;66133.03;5051279;28;20288;-54
2023/07/16 09:20:23;;;;;;;9.18;7.03;;;;;;;30.06;65.07;66188.56;5051544;28;20311;-55
2023/07/16 09:22:49;;;;;;;13.65;7.25;;;;;;;30.26;62.29;66212.91;5051469;28;20213;-54
2023/07/16 09:25:14;;;;;;;8.65;7.35;;;;;;;30.29;62.00;66214.22;5051459;28;20564;-53
2023/07/16 09:27:40;;;;;;;11.70;7.22;;;;;;;30.44;65.09;66233.53;5051740;28;20217;-52
2023/07/16 09:30:06;;;;;;;12.52;7.47;;;;;;;30.42;64.60;66231.31;5051398;28;20679;-54
2023/07/16 09:32:41;;;;;;;11.07;6.75;;;;;;;29.76;62.05;66155.13;5033412;28;20271;-57
2023/07/16 09:35:11;;;;;;;9.77;7.88;;;;;;;30.23;63.25;66206.94;5051361;28;20676;-53
2023/07/16 09:37:40;;;;;;;8.77;7.60;;;;;;;30.17;62.05;66200.84;5051273;28;20718;-53
2023/07/16 09:40:10;;;;;;;8.95;6.88;;;;;;;30.33;64.29;66216.09;5050960;28;20703;-53
2023/07/16 09:42:40;;;;;;;8.35;7.55;;;;;;;30.82;63.35;66272.75;5051839;28;20578;-53
2023/07/16 09:45:10;;;;;;;12.23;6.47;;;;;;;31.02;63.94;66297.69;5051089;28;20209;-53
2023/07/16 09:47:36;;;;;;;9.70;8.23;;;;;;;30.95;62.58;66287.25;5033721;28;20205;-53
2023/07/16 09:50:04;;;;;;;11.02;6.20;;;;;;;31.14;60.16;66308.47;5051346;28;20262;-50
2023/07/16 09:52:32;;;;;;;10.10;7.35;;;;;;;31.31;61.81;66332.63;5049362;28;20264;-51
2023/07/16 09:55:02;;;;;;;11.48;7.45;;;;;;;31.49;61.04;66346.41;5050808;28;20217;-52
2023/07/16 09:57:33;;;;;;;10.15;7.07;;;;;;;31.50;60.85;66342.28;5051046;28;20243;-54
2023/07/16 10:00:03;;;;;;;10.07;7.47;;;;;;;31.18;60.61;66312.91;5033568;28;20197;-54
2023/07/16 10:02:29;;;;;;;8.55;6.80;;;;;;;31.23;59.59;66315.88;5051068;28;20224;-52
2023/07/16 10:04:57;;;;;;;13.45;7.78;;;;;;;31.59;60.85;66354.97;5050426;28;20185;-53
2023/07/16 10:07:26;;;;;;;9.38;7.38;;;;;;;31.88;58.76;66389.91;5050862;28;20220;-53
2023/07/16 10:09:56;;;;;;;11.70;7.55;;;;;;;32.06;57.34;66410.03;5051497;28;20303;-53
2023/07/16 10:12:24;;;;;;;10.98;8.48;;;;;;;31.96;59.81;66401.47;5050335;28;20221;-52
2023/07/16 10:14:49;;;;;;;11.07;8.95;;;;;;;32.26;58.10;66432.38;5049159;28;20288;-52
2023/07/16 10:17:20;;;;;;;9.93;8.05;;;;;;;32.36;55.16;66446.13;5051189;28;20348;-51
2023/07/16 10:20:07;;;;;;;9.77;7.90;;;;;;;32.75;56.18;66489.69;5033102;28;20201;-50
2023/07/16 10:22:36;;;;;;;10.13;6.68;;;;;;;32.85;54.94;66498.25;5051404;28;20248;-53
2023/07/16 10:25:05;;;;;;;8.32;7.50;;;;;;;32.75;53.98;66486.53;5049776;28;20240;-52
2023/07/16 10:27:33;;;;;;;11.60;7.00;;;;;;;33.08;54.93;66523.41;5050661;28;20244;-52
2023/07/16 10:30:02;;;;;;;8.55;7.28;;;;;;;33.29;56.97;66544.25;5050520;28;20205;-55
2023/07/16 10:32:29;;;;;;;11.93;7.82;;;;;;;33.31;55.44;66551.16;5050189;28;20216;-55
2023/07/16 10:34:56;;;;;;;11.43;9.13;;;;;;;33.22;54.52;66538.50;5050206;28;20225;-53
2023/07/16 10:37:22;;;;;;;11.15;7.90;;;;;;;32.73;53.41;66487.47;5050400;28;20220;-53
2023/07/16 10:39:58;;;;;;;9.23;7.55;;;;;;;33.20;52.10;66539.44;5050385;28;20192;-53
2023/07/16 10:42:25;;;;;;;10.90;8.30;;;;;;;33.54;52.65;66571.66;5050489;28;20227;-51
2023/07/16 10:44:58;;;;;;;14.20;8.98;;;;;;;33.46;52.78;66562.69;5050332;28;20229;-52
2023/07/16 10:47:29;;;;;;;11.75;10.30;;;;;;;33.68;53.63;66589.91;5050440;28;20208;-53
2023/07/16 10:49:54;;;;;;;13.52;9.98;;;;;;;33.28;51.27;66547.81;5050569;28;20181;-56
2023/07/16 10:52:22;;;;;;;20.88;11.85;;;;;;;33.74;51.26;66594.00;5071632;22;20694;-50
2023/07/16 10:54:58;;;;;;;11.82;7.97;;;;;;;33.78;47.13;66598.47;5052015;28;20201;-50
2023/07/16 10:57:25;;;;;;;13.35;10.57;;;;;;;33.82;46.39;66606.13;5054738;28;20255;-53
2023/07/16 10:59:56;;;;;;;15.95;9.98;;;;;;;33.96;47.25;66618.59;5049923;28;20193;-52
2023/07/16 11:02:23;;;;;;;12.43;8.18;;;;;;;34.52;49.29;66681.22;5071181;22;20248;-56
2023/07/16 11:04:50;;;;;;;18.52;16.42;;;;;;;34.59;49.35;66688.50;5051943;28;20200;-53
2023/07/16 11:07:16;;;;;;;9.52;8.13;;;;;;;34.56;47.41;66685.16;5055498;28;20300;-54
2023/07/16 11:09:50;;;;;;;12.48;8.23;;;;;;;34.85;45.39;66717.03;5049917;28;20229;-55
2023/07/16 11:12:21;;;;;;;12.27;8.93;;;;;;;34.41;49.24;66671.53;5049582;28;20639;-56
2023/07/16 11:14:48;;;;;;;10.02;8.10;;;;;;;34.11;46.35;66634.81;5049857;28;20705;-55
2023/07/16 11:17:15;;;;;;;15.68;13.23;;;;;;;33.39;48.72;66557.50;5053036;28;20209;-53
2023/07/16 11:19:44;;;;;;;20.13;13.80;;;;;;;32.57;51.48;66467.00;5053498;28;20288;-53
2023/07/16 11:22:10;;;;;;;15.63;10.85;;;;;;;32.44;50.36;66452.47;5053296;28;20283;-53
2023/07/16 11:24:46;;;;;;;13.82;10.45;;;;;;;32.32;51.69;66439.06;5053008;28;20610;-53
2023/07/16 11:27:29;;;;;;;10.75;8.43;;;;;;;33.11;49.06;66526.75;5053142;28;20271;-53